Aérodrome :
LOGIN :

S'inscrire | Disclaimer

   EN    FR    IT 

 










Légende :    VFR   VFR Marginal   IFR   IFR Intensif   IFR Très Intensif
Visi : 
Plafond : 
>= 8 km
>= 3000ft
5 à 8 km
1000 à 3000 ft
1500m à 5 km
500 à 1000 ft
800 à 1500m
200 à 500 ft
< 800m
< 200 ft
Symboles :   Orages  Brouillard  Fortes neiges  Fortes précipitations  Vent > 20 kt
SIGMETs :   Divers  Orages  Givrage  Turbulence  Onde Orograph.  Cendres Volcan.






- Altitude de l'aérodrome : 529 ft
- Code IATA : CHR


LFLX - Chateauroux

DERNIER METAR :
  • 152030Z AUTO 03006KT 9999 OVC029 02/M02 Q1029 NOSIG

METARs EXPIRÉS :
  • 152000Z AUTO 03004KT 9999 OVC029 02/M02 Q1029 NOSIG
  • 151930Z AUTO 01005KT 9999 OVC029 02/M02 Q1029 NOSIG
  • 151900Z AUTO 02007KT 350V050 9999 OVC029 02/M02 Q1029 NOSIG
  • 151830Z AUTO 03006KT 9999 OVC026 02/M02 Q1029 NOSIG
  • 151800Z AUTO 02007KT 9999 OVC027 02/M02 Q1029 NOSIG

TAF TAF LFLX
Valide du 15 à 18h jusqu'au 17 à 00h UTC


151700Z 1518/1624 04006KT 9999 SCT030
PROB30
TEMPO 1601/1604 BKN007
TEMPO 1609/1612 2500 -SN BKN008
BECMG 1612/1614 20012KT -RA BKN030
PROB30
TEMPO 1612/1615 3500 -SNRA BKN012
TEMPO 1616/1622 2000 RA OVC006
PROB40
TEMPO 1617/1621 24018G30KT
BECMG 1622/1624 NSW



MET'MAP, la Météo Aéronautique d'un coup d'oeil ! - Copyright ORBIFLY Décembre 2007 - Disclaimer

ORBIFLY MET'MAP TEAM :

Programmation & Développement : Alexandra Zaïnal
Sur une idée originale de : Baudouin d'Aumeries
Assistance à la programmation : Marc-Olivier Méhu
Soutien technique & logistique : Manuel Goepfert

Contact : metmap@orbifly.com




SOURCES & CREDITS :

   NOAA